Surabaya/Juanda International Airport

Airport
ICAO code: 
WARR
IATA Code: 
SUB
Summary
ICAO Region: 
APAC
Territory: 
Location: 
Sidoarjo, Jawa Timur
Serving: 
Surabaya
Elevation: 
9 ft
Coordinates: 
Aerial View: 
7° 22' 47.392" S, 112° 47' 12.689" E
Metar
Observation
WARR 200100Z 27007KT 9999 FEW020 28/24 Q1008 NOSIG
Station
JUANDA
Date/Time
2022-01-20 01:00:00
Wind direction
270°
Wind speed
07 kts
Lowest cloud amount
few clouds
Temperature
28°C
Dew point
24°C
Humidity
78%
QNH
1008 hPa
Weather condition
n/a

Juanda International Airport is an airport located in Sidoarjo, a small town near Surabaya, East Java. This airport serves Surabaya and surrounding areas.

Climatology

Tropical Savanna climate (Köppen climate classification Aw) - monthly mean temperature above 18°C in every month of the year and a pronounced dry season.

Runways

Designator Length Width Surface Rops
10/28 3000 45 ASP Yes/Yes
Airport map: 
Aerial View: 

Accidents and Serious Incidents at or in the vicinity of WARR

SKYbrary Partners:

Safety knowledge contributed by: